createdAt,value
2022-10-07T00:00:10.197Z,21.39
2022-10-07T00:00:41.599Z,21.38
2022-10-07T00:01:13.082Z,21.38
2022-10-07T00:01:44.568Z,21.37
2022-10-07T00:02:16.044Z,21.37
2022-10-07T00:02:47.489Z,21.37
2022-10-07T00:03:18.887Z,21.37
2022-10-07T00:03:50.265Z,21.35
2022-10-07T00:04:21.651Z,21.36
2022-10-07T00:04:53.153Z,21.36
2022-10-07T00:05:24.530Z,21.35
2022-10-07T00:05:55.907Z,21.35
2022-10-07T00:06:27.294Z,21.34
2022-10-07T00:06:58.692Z,21.34
2022-10-07T00:07:30.067Z,21.33
2022-10-07T00:08:01.458Z,21.34
2022-10-07T00:08:32.844Z,21.33
2022-10-07T00:09:04.240Z,21.33
2022-10-07T00:09:35.639Z,21.32
2022-10-07T00:10:07.124Z,21.32
2022-10-07T00:10:38.519Z,21.32
2022-10-07T00:11:10.005Z,21.31
2022-10-07T00:11:41.386Z,21.30
2022-10-07T00:12:12.786Z,21.30
2022-10-07T00:12:44.166Z,21.29
2022-10-07T00:13:15.539Z,21.29
2022-10-07T00:13:46.920Z,21.28
2022-10-07T00:14:18.331Z,21.29
2022-10-07T00:14:49.737Z,21.28
2022-10-07T00:15:21.134Z,21.27
2022-10-07T00:15:52.630Z,21.28
2022-10-07T00:16:24.098Z,21.26
2022-10-07T00:16:55.580Z,21.26
2022-10-07T00:17:27.040Z,21.26
2022-10-07T00:17:58.415Z,21.24
2022-10-07T00:18:29.794Z,21.24
2022-10-07T00:19:01.173Z,21.24
2022-10-07T00:19:32.551Z,21.23
2022-10-07T00:20:03.958Z,21.22
2022-10-07T00:20:35.426Z,21.22
2022-10-07T00:21:06.828Z,21.23
2022-10-07T00:21:38.226Z,21.22
2022-10-07T00:22:09.620Z,21.22
2022-10-07T00:22:41.018Z,21.22
2022-10-07T00:23:12.427Z,21.21
2022-10-07T00:23:43.853Z,21.21
2022-10-07T00:24:15.255Z,21.20
2022-10-07T00:24:46.659Z,21.20
2022-10-07T00:25:18.031Z,21.20
2022-10-07T00:25:49.504Z,21.20
2022-10-07T00:26:20.895Z,21.19
2022-10-07T00:26:52.294Z,21.20
2022-10-07T00:27:23.695Z,21.18
2022-10-07T00:27:55.096Z,21.18
2022-10-07T00:28:26.520Z,21.18
2022-10-07T00:28:57.959Z,21.18
2022-10-07T00:29:29.360Z,21.17
2022-10-07T00:30:00.771Z,21.17
2022-10-07T00:30:32.199Z,21.17
2022-10-07T00:31:03.839Z,21.17
2022-10-07T00:31:35.283Z,21.17
2022-10-07T00:32:06.679Z,21.16
2022-10-07T00:32:38.054Z,21.16
2022-10-07T00:33:09.451Z,21.16
2022-10-07T00:33:40.854Z,21.16
2022-10-07T00:34:12.253Z,21.16
2022-10-07T00:34:43.654Z,21.15
2022-10-07T00:35:15.055Z,21.14
2022-10-07T00:35:46.440Z,21.14
2022-10-07T00:36:17.926Z,21.13
2022-10-07T00:36:49.327Z,21.13
2022-10-07T00:37:20.719Z,21.13
2022-10-07T00:37:52.107Z,21.12
2022-10-07T00:38:23.497Z,21.11
2022-10-07T00:38:54.902Z,21.12
2022-10-07T00:39:26.290Z,21.12
2022-10-07T00:39:57.692Z,21.11
2022-10-07T00:40:29.097Z,21.10
2022-10-07T00:41:00.489Z,21.09
2022-10-07T00:41:32.006Z,21.07
2022-10-07T00:42:03.393Z,21.06
2022-10-07T00:42:34.779Z,21.07
2022-10-07T00:43:06.165Z,21.06
2022-10-07T00:43:37.559Z,21.06
2022-10-07T00:44:08.963Z,21.05
2022-10-07T00:44:40.373Z,21.05
2022-10-07T00:45:11.760Z,21.05
2022-10-07T00:45:43.226Z,21.05
2022-10-07T00:46:14.701Z,21.04
2022-10-07T00:46:46.166Z,21.03
2022-10-07T00:47:17.601Z,21.03
2022-10-07T00:47:49.014Z,21.03
2022-10-07T00:48:20.416Z,21.02
2022-10-07T00:48:51.829Z,21.02
2022-10-07T00:49:23.248Z,21.01
2022-10-07T00:49:54.645Z,21.02
2022-10-07T00:50:26.048Z,21.01
2022-10-07T00:50:57.431Z,21.02
2022-10-07T00:51:28.841Z,21.01
2022-10-07T00:52:00.306Z,21.00
2022-10-07T00:52:31.701Z,21.00
2022-10-07T00:53:03.095Z,21.00
2022-10-07T00:53:34.504Z,20.99
2022-10-07T00:54:05.897Z,20.99
2022-10-07T00:54:37.308Z,20.98
2022-10-07T00:55:08.691Z,20.98
2022-10-07T00:55:40.075Z,20.99
2022-10-07T00:56:11.473Z,20.98
2022-10-07T00:56:42.865Z,20.98
2022-10-07T00:57:14.368Z,20.98
2022-10-07T00:57:46.389Z,20.97
2022-10-07T00:58:18.216Z,20.98
2022-10-07T00:58:49.605Z,20.96
2022-10-07T00:59:21.003Z,20.96
2022-10-07T00:59:52.394Z,20.97
2022-10-07T01:00:23.794Z,20.96
2022-10-07T01:00:55.248Z,20.96
2022-10-07T01:01:26.756Z,20.94
2022-10-07T01:01:58.223Z,20.94
2022-10-07T01:02:29.713Z,20.94
2022-10-07T01:03:01.153Z,20.95
2022-10-07T01:03:32.543Z,20.94
2022-10-07T01:04:03.947Z,20.94
2022-10-07T01:04:35.332Z,20.93
2022-10-07T01:05:06.736Z,20.93
2022-10-07T01:05:38.312Z,20.93
2022-10-07T01:06:09.717Z,20.92
2022-10-07T01:06:41.103Z,20.92
2022-10-07T01:07:12.493Z,20.91
2022-10-07T01:07:44.097Z,20.92
2022-10-07T01:08:15.600Z,20.91
2022-10-07T01:08:46.999Z,20.91
2022-10-07T01:09:18.386Z,20.91
2022-10-07T01:09:49.781Z,20.91
2022-10-07T01:10:21.163Z,20.90
2022-10-07T01:10:52.555Z,20.89
2022-10-07T01:11:23.987Z,20.89
2022-10-07T01:11:55.403Z,20.89
2022-10-07T01:12:26.844Z,20.89
2022-10-07T01:12:58.237Z,20.89
2022-10-07T01:13:29.674Z,20.87
2022-10-07T01:14:01.091Z,20.87
2022-10-07T01:14:32.492Z,20.88
2022-10-07T01:15:03.946Z,20.87
2022-10-07T01:15:35.423Z,20.87
2022-10-07T01:16:06.813Z,20.87
2022-10-07T01:16:38.264Z,20.85
2022-10-07T01:17:09.734Z,20.86
2022-10-07T01:17:41.529Z,20.85
2022-10-07T01:18:13.119Z,20.85
2022-10-07T01:18:44.533Z,20.84
2022-10-07T01:19:15.925Z,20.85
2022-10-07T01:19:47.553Z,20.83
2022-10-07T01:20:18.992Z,20.83
2022-10-07T01:20:50.377Z,20.83
2022-10-07T01:21:21.780Z,20.82
2022-10-07T01:21:53.180Z,20.82
2022-10-07T01:22:24.597Z,20.83
2022-10-07T01:22:56.097Z,20.82
2022-10-07T01:23:27.500Z,20.80
2022-10-07T01:23:58.904Z,20.81
2022-10-07T01:24:30.294Z,20.80
2022-10-07T01:25:01.709Z,20.80
2022-10-07T01:25:33.112Z,20.79
2022-10-07T01:26:04.495Z,20.80
2022-10-07T01:26:35.900Z,20.79
2022-10-07T01:27:07.390Z,20.78
2022-10-07T01:27:38.942Z,20.78
2022-10-07T01:28:10.345Z,20.78
2022-10-07T01:28:41.810Z,20.78
2022-10-07T01:29:13.217Z,20.77
2022-10-07T01:29:44.624Z,20.77
2022-10-07T01:30:16.041Z,20.77
2022-10-07T01:30:47.503Z,20.77
2022-10-07T01:31:19.082Z,20.77
2022-10-07T01:31:50.532Z,20.76
2022-10-07T01:32:21.942Z,20.77
2022-10-07T01:32:53.413Z,20.74
2022-10-07T01:33:24.798Z,20.74
2022-10-07T01:33:56.188Z,20.76
2022-10-07T01:34:27.592Z,20.73
2022-10-07T01:34:59.011Z,20.73
2022-10-07T01:35:30.404Z,20.73
2022-10-07T01:36:01.804Z,20.73
2022-10-07T01:36:33.217Z,20.73
2022-10-07T01:37:04.619Z,20.73
2022-10-07T01:37:36.024Z,20.73
2022-10-07T01:38:07.472Z,20.71
2022-10-07T01:38:38.861Z,20.71
2022-10-07T01:39:10.249Z,20.71
2022-10-07T01:39:41.651Z,20.71
2022-10-07T01:40:13.036Z,20.71
2022-10-07T01:40:44.431Z,20.71
2022-10-07T01:41:15.823Z,20.71
2022-10-07T01:41:47.218Z,20.70
2022-10-07T01:42:18.599Z,20.69
2022-10-07T01:42:49.984Z,20.69
2022-10-07T01:43:21.411Z,20.69
2022-10-07T01:43:52.816Z,20.69
2022-10-07T01:44:24.198Z,20.68
2022-10-07T01:44:55.595Z,20.69
2022-10-07T01:45:27.006Z,20.67
2022-10-07T01:45:58.461Z,20.66
2022-10-07T01:46:29.908Z,20.66
2022-10-07T01:47:01.312Z,20.66
2022-10-07T01:47:32.730Z,20.66
2022-10-07T01:48:04.139Z,20.65
2022-10-07T01:48:35.678Z,20.65
2022-10-07T01:49:07.075Z,20.66
2022-10-07T01:49:38.484Z,20.64
2022-10-07T01:50:09.869Z,20.64
2022-10-07T01:50:41.268Z,20.64
2022-10-07T01:51:12.655Z,20.65
2022-10-07T01:51:44.041Z,20.64
2022-10-07T01:52:15.447Z,20.64
2022-10-07T01:52:46.832Z,20.63
2022-10-07T01:53:18.236Z,20.63
2022-10-07T01:53:49.730Z,20.62
2022-10-07T01:54:21.191Z,20.62
2022-10-07T01:54:52.581Z,20.62
2022-10-07T01:55:23.990Z,20.62
2022-10-07T01:55:55.401Z,20.62
2022-10-07T01:56:26.789Z,20.61
2022-10-07T01:56:58.191Z,20.61
2022-10-07T01:57:29.575Z,20.60
2022-10-07T01:58:00.966Z,20.61
2022-10-07T01:58:32.392Z,20.61
2022-10-07T01:59:03.816Z,20.59
2022-10-07T01:59:35.200Z,20.60
2022-10-07T02:00:06.593Z,20.59
2022-10-07T02:00:38.011Z,20.59
2022-10-07T02:01:09.457Z,20.59
2022-10-07T02:01:40.917Z,20.58
2022-10-07T02:02:12.350Z,20.58
2022-10-07T02:02:43.731Z,20.57
2022-10-07T02:03:15.177Z,20.57
2022-10-07T02:03:46.642Z,20.57
2022-10-07T02:04:18.389Z,20.57
2022-10-07T02:04:49.777Z,20.57
2022-10-07T02:05:21.169Z,20.56
2022-10-07T02:05:52.562Z,20.56
2022-10-07T02:06:23.949Z,20.56
2022-10-07T02:06:55.344Z,20.55
2022-10-07T02:07:26.727Z,20.56
2022-10-07T02:07:58.118Z,20.55
2022-10-07T02:08:29.523Z,20.54
2022-10-07T02:09:00.922Z,20.54
2022-10-07T02:09:32.429Z,20.54
2022-10-07T02:10:03.843Z,20.54
2022-10-07T02:10:35.243Z,20.53
2022-10-07T02:11:06.628Z,20.52
2022-10-07T02:11:38.029Z,20.52
2022-10-07T02:12:09.511Z,20.52
2022-10-07T02:12:40.891Z,20.52
2022-10-07T02:13:12.324Z,20.51
2022-10-07T02:13:43.722Z,20.51
2022-10-07T02:14:15.111Z,20.50
2022-10-07T02:14:46.613Z,20.50
2022-10-07T02:15:17.992Z,20.50
2022-10-07T02:15:49.414Z,20.50
2022-10-07T02:16:20.854Z,20.49
2022-10-07T02:16:52.256Z,20.49
2022-10-07T02:17:23.636Z,20.49
2022-10-07T02:17:55.035Z,20.48
2022-10-07T02:18:26.422Z,20.48
2022-10-07T02:18:57.830Z,20.47
2022-10-07T02:19:29.338Z,20.47
2022-10-07T02:20:00.757Z,20.46
2022-10-07T02:20:32.158Z,20.48
2022-10-07T02:21:03.546Z,20.47
2022-10-07T02:21:34.957Z,20.47
2022-10-07T02:22:06.349Z,20.46
2022-10-07T02:22:37.751Z,20.46
2022-10-07T02:23:09.144Z,20.46
2022-10-07T02:23:40.555Z,20.45
2022-10-07T02:24:11.950Z,20.45
2022-10-07T02:24:43.400Z,20.45
2022-10-07T02:25:14.793Z,20.45
2022-10-07T02:25:46.176Z,20.44
2022-10-07T02:26:17.568Z,20.45
2022-10-07T02:26:48.969Z,20.44
2022-10-07T02:27:20.389Z,20.43
2022-10-07T02:27:51.803Z,20.44
2022-10-07T02:28:23.200Z,20.44
2022-10-07T02:28:54.706Z,20.43
2022-10-07T02:29:26.113Z,20.43
2022-10-07T02:29:57.540Z,20.43
2022-10-07T02:30:28.928Z,20.42
2022-10-07T02:31:00.373Z,20.42
2022-10-07T02:31:31.867Z,20.41
2022-10-07T02:32:03.352Z,20.41
2022-10-07T02:32:34.742Z,20.41
2022-10-07T02:33:06.144Z,20.41
2022-10-07T02:33:37.528Z,20.39
2022-10-07T02:34:08.939Z,20.40
2022-10-07T02:34:40.320Z,20.39
2022-10-07T02:35:11.801Z,20.38
2022-10-07T02:35:43.189Z,20.40
2022-10-07T02:36:14.604Z,20.38
2022-10-07T02:36:45.998Z,20.37
2022-10-07T02:37:17.391Z,20.38
2022-10-07T02:37:48.790Z,20.38
2022-10-07T02:38:20.185Z,20.37
2022-10-07T02:38:51.574Z,20.36
2022-10-07T02:39:22.961Z,20.37
2022-10-07T02:39:54.353Z,20.37
2022-10-07T02:40:25.861Z,20.37
2022-10-07T02:40:57.268Z,20.37
2022-10-07T02:41:28.676Z,20.35
2022-10-07T02:42:00.096Z,20.37
2022-10-07T02:42:31.499Z,20.36
2022-10-07T02:43:02.888Z,20.35
2022-10-07T02:43:34.290Z,20.35
2022-10-07T02:44:05.754Z,20.34
2022-10-07T02:44:37.156Z,20.33
2022-10-07T02:45:08.558Z,20.34
2022-10-07T02:45:40.000Z,20.34
2022-10-07T02:46:11.447Z,20.33
2022-10-07T02:46:42.941Z,20.33
2022-10-07T02:47:14.373Z,20.33
2022-10-07T02:47:46.093Z,20.33
2022-10-07T02:48:17.809Z,20.33
2022-10-07T02:48:49.191Z,20.32
2022-10-07T02:49:20.590Z,20.32
2022-10-07T02:49:51.988Z,20.32
2022-10-07T02:50:23.377Z,20.32
2022-10-07T02:50:54.914Z,20.31
2022-10-07T02:51:26.312Z,20.32
2022-10-07T02:51:57.717Z,20.30
2022-10-07T02:52:29.102Z,20.30
2022-10-07T02:53:00.510Z,20.30
2022-10-07T02:53:31.916Z,20.30
2022-10-07T02:54:03.305Z,20.29
2022-10-07T02:54:34.692Z,20.29
2022-10-07T02:55:06.083Z,20.29
2022-10-07T02:55:37.495Z,20.29
2022-10-07T02:56:08.965Z,20.28
2022-10-07T02:56:40.368Z,20.28
2022-10-07T02:57:11.757Z,20.27
2022-10-07T02:57:43.424Z,20.28
2022-10-07T02:58:14.996Z,20.27
2022-10-07T02:58:46.386Z,20.27
2022-10-07T02:59:17.786Z,20.26
2022-10-07T02:59:49.170Z,20.26
2022-10-07T03:00:20.576Z,20.26
2022-10-07T03:00:51.960Z,20.26
2022-10-07T03:01:23.473Z,20.25
2022-10-07T03:01:54.923Z,20.25
2022-10-07T03:02:26.450Z,20.25
2022-10-07T03:02:57.836Z,20.26
2022-10-07T03:03:29.254Z,20.25
2022-10-07T03:04:00.749Z,20.25
2022-10-07T03:04:32.206Z,20.24
2022-10-07T03:05:03.713Z,20.25
2022-10-07T03:05:35.138Z,20.25
2022-10-07T03:06:06.525Z,20.23
2022-10-07T03:06:38.016Z,20.24
2022-10-07T03:07:09.424Z,20.23
2022-10-07T03:07:40.869Z,20.22
2022-10-07T03:08:12.278Z,20.22
2022-10-07T03:08:43.685Z,20.22
2022-10-07T03:09:15.099Z,20.22
2022-10-07T03:09:46.493Z,20.22
2022-10-07T03:10:17.904Z,20.21
2022-10-07T03:10:49.295Z,20.20
2022-10-07T03:11:20.748Z,20.21
2022-10-07T03:11:52.168Z,20.21
2022-10-07T03:12:23.570Z,20.21
2022-10-07T03:12:54.986Z,20.20
2022-10-07T03:13:26.371Z,20.20
2022-10-07T03:13:57.777Z,20.20
2022-10-07T03:14:29.167Z,20.20
2022-10-07T03:15:00.553Z,20.19
2022-10-07T03:15:31.948Z,20.20
2022-10-07T03:16:03.412Z,20.18
2022-10-07T03:16:34.951Z,20.18
2022-10-07T03:17:06.389Z,20.19
2022-10-07T03:17:37.782Z,20.18
2022-10-07T03:18:09.173Z,20.18
2022-10-07T03:18:40.556Z,20.17
2022-10-07T03:19:11.973Z,20.17
2022-10-07T03:19:43.369Z,20.17
2022-10-07T03:20:14.770Z,20.17
2022-10-07T03:20:46.162Z,20.16
2022-10-07T03:21:17.549Z,20.17
2022-10-07T03:21:49.065Z,20.16
2022-10-07T03:22:20.452Z,20.16
2022-10-07T03:22:51.845Z,20.16
2022-10-07T03:23:23.248Z,20.16
2022-10-07T03:23:54.661Z,20.15
2022-10-07T03:24:26.050Z,20.15
2022-10-07T03:24:57.442Z,20.16
2022-10-07T03:25:28.841Z,20.14
2022-10-07T03:26:00.235Z,20.14
2022-10-07T03:26:31.692Z,20.14
2022-10-07T03:27:03.516Z,20.14
2022-10-07T03:27:34.899Z,20.13
2022-10-07T03:28:06.366Z,20.14
2022-10-07T03:28:37.934Z,20.13
2022-10-07T03:29:09.389Z,20.13
2022-10-07T03:29:40.797Z,20.12
2022-10-07T03:30:12.207Z,20.13
2022-10-07T03:30:43.599Z,20.12
2022-10-07T03:31:15.025Z,20.12
2022-10-07T03:31:46.554Z,20.11
2022-10-07T03:32:17.947Z,20.11
2022-10-07T03:32:49.374Z,20.11
2022-10-07T03:33:20.790Z,20.11
2022-10-07T03:33:52.180Z,20.11
2022-10-07T03:34:23.587Z,20.10
2022-10-07T03:34:54.976Z,20.10
2022-10-07T03:35:26.372Z,20.10
2022-10-07T03:35:57.769Z,20.08
2022-10-07T03:36:29.155Z,20.09
2022-10-07T03:37:00.648Z,20.08
2022-10-07T03:37:32.037Z,20.08
2022-10-07T03:38:03.421Z,20.08
2022-10-07T03:38:34.824Z,20.07
2022-10-07T03:39:06.213Z,20.07
2022-10-07T03:39:37.610Z,20.07
2022-10-07T03:40:08.996Z,20.07
2022-10-07T03:40:40.393Z,20.07
2022-10-07T03:41:11.796Z,20.06
2022-10-07T03:41:43.244Z,20.06
2022-10-07T03:42:14.632Z,20.05
2022-10-07T03:42:46.129Z,20.06
2022-10-07T03:43:17.549Z,20.06
2022-10-07T03:43:49.013Z,20.04
2022-10-07T03:44:20.401Z,20.05
2022-10-07T03:44:51.788Z,20.05
2022-10-07T03:45:23.176Z,20.04
2022-10-07T03:45:54.564Z,20.04
2022-10-07T03:46:26.094Z,20.04
2022-10-07T03:46:57.668Z,20.04
2022-10-07T03:47:29.263Z,20.04
2022-10-07T03:48:00.674Z,20.03
2022-10-07T03:48:32.073Z,20.03
2022-10-07T03:49:03.480Z,20.02
2022-10-07T03:49:34.860Z,20.03
2022-10-07T03:50:06.260Z,20.02
2022-10-07T03:50:37.646Z,20.02
2022-10-07T03:51:09.037Z,20.01
2022-10-07T03:51:40.547Z,20.01
2022-10-07T03:52:12.024Z,20.01
2022-10-07T03:52:43.417Z,20.02
2022-10-07T03:53:14.825Z,20.01
2022-10-07T03:53:46.232Z,20.01
2022-10-07T03:54:17.645Z,20.01
2022-10-07T03:54:49.030Z,20.01
2022-10-07T03:55:20.434Z,20.00
2022-10-07T03:55:51.829Z,20.00
2022-10-07T03:56:23.222Z,20.00
2022-10-07T03:56:54.692Z,19.99
2022-10-07T03:57:26.089Z,19.98
2022-10-07T03:57:59.700Z,19.98
2022-10-07T03:58:31.333Z,19.98
2022-10-07T03:59:02.723Z,19.97
2022-10-07T03:59:34.116Z,19.97
2022-10-07T04:00:05.505Z,19.98
2022-10-07T04:00:36.915Z,19.97
2022-10-07T04:01:08.325Z,19.97
2022-10-07T04:01:39.832Z,19.96
2022-10-07T04:02:11.466Z,19.97
2022-10-07T04:02:42.920Z,19.96
2022-10-07T04:03:14.406Z,19.97
2022-10-07T04:03:45.864Z,19.97
2022-10-07T04:04:17.245Z,19.96
2022-10-07T04:04:49.908Z,19.96
2022-10-07T04:05:21.319Z,19.96
2022-10-07T04:05:52.717Z,19.94
2022-10-07T04:06:24.114Z,19.93
2022-10-07T04:06:55.537Z,19.95
2022-10-07T04:07:26.949Z,19.93
2022-10-07T04:07:58.352Z,19.94
2022-10-07T04:08:29.768Z,19.94
2022-10-07T04:09:01.172Z,19.94
2022-10-07T04:09:32.569Z,19.93
2022-10-07T04:10:03.981Z,19.93
2022-10-07T04:10:35.374Z,19.94
2022-10-07T04:11:06.780Z,19.93
2022-10-07T04:11:38.158Z,19.92
2022-10-07T04:12:09.658Z,19.92
2022-10-07T04:12:41.042Z,19.93
2022-10-07T04:13:12.450Z,19.93
2022-10-07T04:13:43.842Z,19.93
2022-10-07T04:14:15.239Z,19.92
2022-10-07T04:14:46.720Z,19.91
2022-10-07T04:15:18.111Z,19.91
2022-10-07T04:15:49.537Z,19.91
2022-10-07T04:16:20.980Z,19.91
2022-10-07T04:16:52.410Z,19.90
2022-10-07T04:17:23.827Z,19.90
2022-10-07T04:17:55.213Z,19.90
2022-10-07T04:18:26.611Z,19.90
2022-10-07T04:18:58.008Z,19.90
2022-10-07T04:19:29.407Z,19.90
2022-10-07T04:20:00.812Z,19.88
2022-10-07T04:20:32.271Z,19.88
2022-10-07T04:21:03.665Z,19.88
2022-10-07T04:21:35.057Z,19.88
2022-10-07T04:22:08.803Z,19.89
2022-10-07T04:22:40.642Z,19.88
2022-10-07T04:23:12.035Z,19.87
2022-10-07T04:23:43.453Z,19.87
2022-10-07T04:24:14.845Z,19.87
2022-10-07T04:24:46.257Z,19.88
2022-10-07T04:25:17.649Z,19.88
2022-10-07T04:25:49.041Z,19.86
2022-10-07T04:26:20.436Z,19.86
2022-10-07T04:26:51.825Z,19.86
2022-10-07T04:27:47.069Z,19.86
2022-10-07T04:28:14.678Z,19.86
2022-10-07T04:28:46.139Z,19.85
2022-10-07T04:29:17.550Z,19.85
2022-10-07T04:29:48.941Z,19.84
2022-10-07T04:30:20.336Z,19.85
2022-10-07T04:30:51.733Z,19.84
2022-10-07T04:31:23.165Z,19.84
2022-10-07T04:31:54.681Z,19.84
2022-10-07T04:32:26.143Z,19.84
2022-10-07T04:32:57.539Z,19.83
2022-10-07T04:33:29.040Z,19.84
2022-10-07T04:34:00.430Z,19.83
2022-10-07T04:34:31.897Z,19.83
2022-10-07T04:35:03.288Z,19.83
2022-10-07T04:35:34.682Z,19.82
2022-10-07T04:36:06.085Z,19.82
2022-10-07T04:36:37.499Z,19.82
2022-10-07T04:37:08.922Z,19.80
2022-10-07T04:37:40.416Z,19.81
2022-10-07T04:38:11.800Z,19.81
2022-10-07T04:38:43.279Z,19.81
2022-10-07T04:39:14.665Z,19.82
2022-10-07T04:40:00.293Z,19.81
2022-10-07T04:40:32.505Z,19.81
2022-10-07T04:41:03.897Z,19.81
2022-10-07T04:41:35.280Z,19.80
2022-10-07T04:42:06.673Z,19.80
2022-10-07T04:42:38.062Z,19.80
2022-10-07T04:43:09.452Z,19.80
2022-10-07T04:43:40.856Z,19.79
2022-10-07T04:44:12.292Z,19.79
2022-10-07T04:44:43.700Z,19.79
2022-10-07T04:45:15.087Z,19.78
2022-10-07T04:45:46.478Z,19.78
2022-10-07T04:46:17.903Z,19.78
2022-10-07T04:46:49.392Z,19.78
2022-10-07T04:47:20.820Z,19.78
2022-10-07T04:47:52.208Z,19.77
2022-10-07T04:48:23.812Z,19.77
2022-10-07T04:48:55.343Z,19.77
2022-10-07T04:49:26.724Z,19.78
2022-10-07T04:49:58.116Z,19.77
2022-10-07T04:50:29.507Z,19.77
2022-10-07T04:51:00.901Z,19.77
2022-10-07T04:51:32.312Z,19.76
2022-10-07T04:52:03.695Z,19.76
2022-10-07T04:52:35.092Z,19.76
2022-10-07T04:53:06.487Z,19.76
2022-10-07T04:53:37.873Z,19.76
2022-10-07T04:54:09.393Z,19.75
2022-10-07T04:54:40.799Z,19.75
2022-10-07T04:55:12.189Z,19.74
2022-10-07T04:55:43.577Z,19.74
2022-10-07T04:56:15.004Z,19.74
2022-10-07T04:56:46.411Z,19.74
2022-10-07T04:57:17.824Z,19.74
2022-10-07T04:57:49.225Z,19.73
2022-10-07T04:58:20.608Z,19.73
2022-10-07T04:58:51.989Z,19.73
2022-10-07T04:59:24.445Z,19.73
2022-10-07T04:59:56.868Z,19.73
2022-10-07T05:00:28.266Z,19.73
2022-10-07T05:00:59.714Z,19.73
2022-10-07T05:01:31.191Z,19.73
2022-10-07T05:02:02.659Z,19.72
2022-10-07T05:02:34.162Z,19.72
2022-10-07T05:03:05.584Z,19.72
2022-10-07T05:03:36.989Z,19.72
2022-10-07T05:04:08.523Z,19.72
2022-10-07T05:04:39.937Z,19.71
2022-10-07T05:05:11.342Z,19.71
2022-10-07T05:05:42.739Z,19.71
2022-10-07T05:06:14.183Z,19.71
2022-10-07T05:06:45.591Z,19.71
2022-10-07T05:07:16.979Z,19.71
2022-10-07T05:07:48.365Z,19.71
2022-10-07T05:08:19.750Z,19.70
2022-10-07T05:08:51.153Z,19.71
2022-10-07T05:09:22.572Z,19.71
2022-10-07T05:09:53.974Z,19.70
2022-10-07T05:10:25.364Z,19.70
2022-10-07T05:10:56.766Z,19.70
2022-10-07T05:11:28.162Z,19.69
2022-10-07T05:11:59.573Z,19.69
2022-10-07T05:12:30.990Z,19.69
2022-10-07T05:13:02.371Z,19.69
2022-10-07T05:13:33.780Z,19.69
2022-10-07T05:14:05.168Z,19.69
2022-10-07T05:14:36.645Z,19.69
2022-10-07T05:15:08.053Z,19.69
2022-10-07T05:15:39.441Z,19.68
2022-10-07T05:16:10.876Z,19.68
2022-10-07T05:16:42.364Z,19.68
2022-10-07T05:17:13.796Z,19.67
2022-10-07T05:17:45.415Z,19.67
2022-10-07T05:18:17.029Z,19.67
2022-10-07T05:18:48.421Z,19.65
2022-10-07T05:19:19.811Z,19.65
2022-10-07T05:19:51.316Z,19.65
2022-10-07T05:20:22.704Z,19.65
2022-10-07T05:20:54.112Z,19.64
2022-10-07T05:21:25.515Z,19.64
2022-10-07T05:21:56.925Z,19.65
2022-10-07T05:22:28.317Z,19.63
2022-10-07T05:22:59.738Z,19.64
2022-10-07T05:23:31.121Z,19.63
2022-10-07T05:24:02.544Z,19.62
2022-10-07T05:24:33.934Z,19.63
2022-10-07T05:25:05.381Z,19.62
2022-10-07T05:25:36.795Z,19.62
2022-10-07T05:26:08.235Z,19.62
2022-10-07T05:26:39.667Z,19.62
2022-10-07T05:27:11.081Z,19.62
2022-10-07T05:27:42.777Z,19.61
2022-10-07T05:28:14.415Z,19.61
2022-10-07T05:28:45.862Z,19.61
2022-10-07T05:29:17.272Z,19.61
2022-10-07T05:29:48.675Z,19.61
2022-10-07T05:30:20.132Z,19.61
2022-10-07T05:30:51.527Z,19.60
2022-10-07T05:31:22.959Z,19.59
2022-10-07T05:31:54.416Z,19.59
2022-10-07T05:32:25.858Z,19.59
2022-10-07T05:32:57.249Z,19.60
2022-10-07T05:33:28.658Z,19.59
2022-10-07T05:34:00.059Z,19.60
2022-10-07T05:34:31.473Z,19.59
2022-10-07T05:35:02.864Z,19.60
2022-10-07T05:35:34.522Z,19.58
2022-10-07T05:36:05.913Z,19.58
2022-10-07T05:36:37.302Z,19.58
2022-10-07T05:37:08.773Z,19.58
2022-10-07T05:37:40.172Z,19.58
2022-10-07T05:38:11.572Z,19.57
2022-10-07T05:38:42.963Z,19.57
2022-10-07T05:39:14.369Z,19.57
2022-10-07T05:39:45.782Z,19.58
2022-10-07T05:40:17.195Z,19.57
2022-10-07T05:40:48.683Z,19.57
2022-10-07T05:41:20.076Z,19.56
2022-10-07T05:41:51.465Z,19.56
2022-10-07T05:42:22.893Z,19.56
2022-10-07T05:42:54.283Z,19.57
2022-10-07T05:43:25.676Z,19.56
2022-10-07T05:43:57.063Z,19.56
2022-10-07T05:44:28.423Z,19.56
2022-10-07T05:44:59.816Z,19.56
2022-10-07T05:45:31.572Z,19.56
2022-10-07T05:46:03.805Z,19.55
2022-10-07T05:46:35.723Z,19.55
2022-10-07T05:47:07.461Z,19.54
2022-10-07T05:47:38.912Z,19.55
2022-10-07T05:48:10.297Z,19.55
2022-10-07T05:48:41.686Z,19.54
2022-10-07T05:49:13.082Z,19.54
2022-10-07T05:49:44.470Z,19.54
2022-10-07T05:50:15.877Z,19.54
2022-10-07T05:50:47.292Z,19.54
2022-10-07T05:51:18.754Z,19.54
2022-10-07T05:51:50.163Z,19.54
2022-10-07T05:52:21.548Z,19.53
2022-10-07T05:52:52.940Z,19.54
2022-10-07T05:53:24.339Z,19.53
2022-10-07T05:53:55.731Z,19.53
2022-10-07T05:54:29.313Z,19.52
2022-10-07T05:55:08.420Z,19.52
2022-10-07T05:55:46.132Z,19.53
2022-10-07T05:56:18.640Z,19.51
2022-10-07T05:56:50.338Z,19.53
2022-10-07T05:57:21.814Z,19.52
2022-10-07T05:57:53.363Z,19.52
2022-10-07T05:58:24.828Z,19.52
2022-10-07T05:58:56.502Z,19.52
2022-10-07T05:59:27.941Z,19.52
2022-10-07T05:59:59.852Z,19.52
2022-10-07T06:00:31.252Z,19.50
2022-10-07T06:01:06.798Z,19.52
2022-10-07T06:01:40.364Z,19.52
2022-10-07T06:02:11.872Z,19.50
2022-10-07T06:02:43.535Z,19.50
2022-10-07T06:03:15.116Z,19.50
2022-10-07T06:03:46.556Z,19.50
2022-10-07T06:04:18.045Z,19.52
2022-10-07T06:04:49.449Z,19.50
2022-10-07T06:05:20.855Z,19.50
2022-10-07T06:05:52.278Z,19.50
2022-10-07T06:06:25.377Z,19.49
2022-10-07T06:06:56.836Z,19.50
2022-10-07T06:07:29.419Z,19.50
2022-10-07T06:08:01.094Z,19.49
2022-10-07T06:08:32.486Z,19.50
2022-10-07T06:09:03.928Z,19.50
2022-10-07T06:09:35.312Z,19.49
2022-10-07T06:10:06.706Z,19.48
2022-10-07T06:10:38.172Z,19.49
2022-10-07T06:11:09.564Z,19.49
2022-10-07T06:11:40.998Z,19.50
2022-10-07T06:12:12.469Z,19.49
2022-10-07T06:12:43.877Z,19.47
2022-10-07T06:13:15.331Z,19.48
2022-10-07T06:13:48.068Z,19.49
2022-10-07T06:14:19.462Z,19.50
2022-10-07T06:14:50.860Z,19.50
2022-10-07T06:15:24.470Z,19.50
2022-10-07T06:15:58.248Z,19.50
2022-10-07T06:16:30.158Z,19.52
2022-10-07T06:17:01.891Z,19.51
2022-10-07T06:17:33.582Z,19.51
2022-10-07T06:18:05.081Z,19.52
2022-10-07T06:18:36.726Z,19.52
2022-10-07T06:19:08.379Z,19.52
2022-10-07T06:19:39.779Z,19.52
2022-10-07T06:20:11.182Z,19.52
2022-10-07T06:20:42.595Z,19.53
2022-10-07T06:21:13.998Z,19.54
2022-10-07T06:21:49.141Z,19.53
2022-10-07T06:22:20.695Z,19.53
2022-10-07T06:22:52.090Z,19.53
2022-10-07T06:23:23.482Z,19.54
2022-10-07T06:23:56.623Z,19.53
2022-10-07T06:24:28.072Z,19.53
2022-10-07T06:24:59.577Z,19.55
2022-10-07T06:25:31.007Z,19.55
2022-10-07T06:26:02.426Z,19.55
2022-10-07T06:26:33.828Z,19.55
2022-10-07T06:27:06.631Z,19.55
2022-10-07T06:27:38.169Z,19.55
2022-10-07T06:28:09.639Z,19.55
2022-10-07T06:28:41.362Z,19.55
2022-10-07T06:29:12.802Z,19.55
2022-10-07T06:29:44.579Z,19.55
2022-10-07T06:30:16.158Z,19.56
2022-10-07T06:30:47.703Z,19.55
2022-10-07T06:31:19.695Z,19.55
2022-10-07T06:31:51.506Z,19.55
2022-10-07T06:32:23.217Z,19.57
2022-10-07T06:32:55.072Z,19.56
2022-10-07T06:33:26.567Z,19.56
2022-10-07T06:33:58.670Z,19.57
2022-10-07T06:34:30.318Z,19.56
2022-10-07T06:35:02.019Z,19.57
2022-10-07T06:35:33.745Z,19.57
2022-10-07T06:36:05.853Z,19.57
2022-10-07T06:36:37.483Z,19.57
2022-10-07T06:37:08.975Z,19.59
2022-10-07T06:37:40.533Z,19.59
2022-10-07T06:38:12.438Z,19.60
2022-10-07T06:38:43.966Z,19.61
2022-10-07T06:39:15.597Z,19.62
2022-10-07T06:39:47.398Z,19.62
2022-10-07T06:40:19.082Z,19.63
2022-10-07T06:40:50.654Z,19.63
2022-10-07T06:41:22.120Z,19.63
2022-10-07T06:41:53.669Z,19.65
2022-10-07T06:42:26.102Z,19.64
2022-10-07T06:42:57.613Z,19.64
2022-10-07T06:43:29.555Z,19.66
2022-10-07T06:44:01.003Z,19.67
2022-10-07T06:44:32.667Z,19.66
2022-10-07T06:45:04.203Z,19.68
2022-10-07T06:45:35.758Z,19.68
2022-10-07T06:46:08.138Z,19.69